createdAt,value
2017-12-24T00:00:51.085Z,99.99
2017-12-24T00:01:51.033Z,99.99
2017-12-24T00:02:51.053Z,99.99
2017-12-24T00:03:50.999Z,99.99
2017-12-24T00:04:51.009Z,99.99
2017-12-24T00:05:50.979Z,99.99
2017-12-24T00:06:50.939Z,99.99
2017-12-24T00:07:50.939Z,99.99
2017-12-24T00:08:50.924Z,99.99
2017-12-24T00:09:50.882Z,99.99
2017-12-24T00:10:50.860Z,99.99
2017-12-24T00:11:50.847Z,99.99
2017-12-24T00:12:50.843Z,99.99
2017-12-24T00:13:50.843Z,99.99
2017-12-24T00:14:50.807Z,99.99
2017-12-24T00:15:50.800Z,99.99
2017-12-24T00:16:50.772Z,99.99
2017-12-24T00:17:50.742Z,99.99
2017-12-24T00:18:50.731Z,99.99
2017-12-24T00:19:50.725Z,99.99
2017-12-24T00:20:50.673Z,99.99
2017-12-24T00:21:50.767Z,99.99
2017-12-24T00:22:50.674Z,99.99
2017-12-24T00:23:50.655Z,99.99
2017-12-24T00:24:50.635Z,99.99
2017-12-24T00:25:50.612Z,99.99
2017-12-24T00:26:50.566Z,99.99
2017-12-24T00:27:50.572Z,99.99
2017-12-24T00:28:50.524Z,99.99
2017-12-24T00:29:50.503Z,99.99
2017-12-24T00:30:50.486Z,99.99
2017-12-24T00:31:50.463Z,99.99
2017-12-24T00:32:50.478Z,99.99
2017-12-24T00:33:50.427Z,99.99
2017-12-24T00:34:50.425Z,99.99
2017-12-24T00:35:50.428Z,99.99
2017-12-24T00:37:23.831Z,99.99
2017-12-24T00:37:50.352Z,99.99
2017-12-24T00:38:50.363Z,99.99
2017-12-24T00:39:50.347Z,99.99
2017-12-24T00:40:50.296Z,99.99
2017-12-24T00:41:50.311Z,99.99
2017-12-24T00:42:50.272Z,99.99
2017-12-24T00:43:50.238Z,99.99
2017-12-24T00:44:50.249Z,99.99
2017-12-24T00:45:50.772Z,99.99
2017-12-24T00:46:50.213Z,99.99
2017-12-24T00:47:50.195Z,99.99
2017-12-24T00:48:50.144Z,99.99
2017-12-24T00:49:50.124Z,99.99
2017-12-24T00:50:50.104Z,99.99
2017-12-24T00:51:50.115Z,99.99
2017-12-24T00:52:50.082Z,99.99
2017-12-24T00:53:50.045Z,99.99
2017-12-24T00:54:50.027Z,99.99
2017-12-24T00:55:50.046Z,99.99
2017-12-24T00:56:50.004Z,99.99
2017-12-24T00:57:49.990Z,99.99
2017-12-24T00:58:49.949Z,99.99
2017-12-24T00:59:49.938Z,99.99
2017-12-24T01:00:49.928Z,99.99
2017-12-24T01:01:49.909Z,99.99
2017-12-24T01:02:49.906Z,99.99
2017-12-24T01:03:49.891Z,99.99
2017-12-24T01:04:49.875Z,99.99
2017-12-24T01:05:49.854Z,99.99
2017-12-24T01:06:49.833Z,99.99
2017-12-24T01:07:49.814Z,99.99
2017-12-24T01:08:49.767Z,99.99
2017-12-24T01:09:49.749Z,99.99
2017-12-24T01:10:49.755Z,99.99
2017-12-24T01:11:49.733Z,99.99
2017-12-24T01:12:49.719Z,99.99
2017-12-24T01:13:49.703Z,99.99
2017-12-24T01:14:49.643Z,99.99
2017-12-24T01:15:49.627Z,99.99
2017-12-24T01:16:49.628Z,99.99
2017-12-24T01:17:49.588Z,99.99
2017-12-24T01:18:49.564Z,99.99
2017-12-24T01:19:49.547Z,99.99
2017-12-24T01:20:49.561Z,99.99
2017-12-24T01:21:49.506Z,99.99
2017-12-24T01:22:49.522Z,99.99
2017-12-24T01:23:49.505Z,99.99
2017-12-24T01:24:49.488Z,99.99
2017-12-24T01:25:49.453Z,99.99
2017-12-24T01:26:49.418Z,99.99
2017-12-24T01:27:49.435Z,99.99
2017-12-24T01:28:49.379Z,99.99
2017-12-24T01:29:49.375Z,99.99
2017-12-24T01:30:49.366Z,99.99
2017-12-24T01:31:49.318Z,99.99
2017-12-24T01:32:49.314Z,99.99
2017-12-24T01:33:49.287Z,99.99
2017-12-24T01:34:49.267Z,99.99
2017-12-24T01:35:49.278Z,99.99
2017-12-24T01:36:49.256Z,99.99
2017-12-24T01:37:49.241Z,99.99
2017-12-24T01:38:49.198Z,99.99
2017-12-24T01:39:49.170Z,99.99
2017-12-24T01:40:49.161Z,99.99
2017-12-24T01:41:49.129Z,99.99
2017-12-24T01:42:49.126Z,99.99
2017-12-24T01:43:49.088Z,99.99
2017-12-24T01:44:49.072Z,99.99
2017-12-24T01:45:49.053Z,99.99
2017-12-24T01:46:49.054Z,99.99
2017-12-24T01:47:49.034Z,99.99
2017-12-24T01:48:48.994Z,99.99
2017-12-24T01:49:49.011Z,99.99
2017-12-24T01:50:48.985Z,99.99
2017-12-24T01:51:48.937Z,99.99
2017-12-24T01:52:48.948Z,99.99
2017-12-24T01:53:48.934Z,99.99
2017-12-24T01:54:48.881Z,99.99
2017-12-24T01:55:48.893Z,99.93
2017-12-24T01:56:48.898Z,99.35
2017-12-24T01:57:48.836Z,99.99
2017-12-24T01:58:48.822Z,99.99
2017-12-24T01:59:48.816Z,99.99
2017-12-24T02:00:48.766Z,99.99
2017-12-24T02:01:48.762Z,99.84
2017-12-24T02:02:48.723Z,99.93
2017-12-24T02:03:48.743Z,99.55
2017-12-24T02:04:48.706Z,99.65
2017-12-24T02:05:48.668Z,99.99
2017-12-24T02:06:48.648Z,99.99
2017-12-24T02:07:48.642Z,99.99
2017-12-24T02:08:48.645Z,99.26
2017-12-24T02:09:48.596Z,99.74
2017-12-24T02:10:48.572Z,99.07
2017-12-24T02:11:48.553Z,98.29
2017-12-24T02:13:21.743Z,99.45
2017-12-24T02:13:48.549Z,98.97
2017-12-24T02:14:48.495Z,98.68
2017-12-24T02:15:48.513Z,98.78
2017-12-24T02:16:48.486Z,98.39
2017-12-24T02:17:48.434Z,98.87
2017-12-24T02:18:48.448Z,99.26
2017-12-24T02:19:48.407Z,99.07
2017-12-24T02:20:48.391Z,99.99
2017-12-24T02:21:48.393Z,98.58
2017-12-24T02:22:48.338Z,98.97
2017-12-24T02:23:48.352Z,99.16
2017-12-24T02:24:48.334Z,99.45
2017-12-24T02:25:48.283Z,97.91
2017-12-24T02:26:48.261Z,98.87
2017-12-24T02:27:48.244Z,98.39
2017-12-24T02:28:48.258Z,98.49
2017-12-24T02:29:48.238Z,98.68
2017-12-24T02:30:48.188Z,98.29
2017-12-24T02:31:48.202Z,98.68
2017-12-24T02:32:48.183Z,99.26
2017-12-24T02:33:48.163Z,98.68
2017-12-24T02:34:48.113Z,99.35
2017-12-24T02:35:48.092Z,98.29
2017-12-24T02:36:48.071Z,98.49
2017-12-24T02:37:48.086Z,97.91
2017-12-24T02:38:48.033Z,98.49
2017-12-24T02:39:48.051Z,98.68
2017-12-24T02:40:48.029Z,98.68
2017-12-24T02:41:47.975Z,99.45
2017-12-24T02:42:47.995Z,99.26
2017-12-24T02:43:47.950Z,99.26
2017-12-24T02:44:47.922Z,99.26
2017-12-24T02:45:47.901Z,98.58
2017-12-24T02:46:47.912Z,99.07
2017-12-24T02:47:47.873Z,99.35
2017-12-24T02:48:47.848Z,98.49
2017-12-24T02:49:47.821Z,98.58
2017-12-24T02:50:47.835Z,99.26
2017-12-24T02:51:47.784Z,99.26
2017-12-24T02:52:47.766Z,99.60
2017-12-24T02:53:47.782Z,99.99
2017-12-24T02:54:47.759Z,99.93
2017-12-24T02:55:47.709Z,99.88
2017-12-24T02:56:47.720Z,99.93
2017-12-24T02:57:47.668Z,99.99
2017-12-24T02:58:47.649Z,99.99
2017-12-24T02:59:47.649Z,99.79
2017-12-24T03:00:47.632Z,99.98
2017-12-24T03:01:47.596Z,99.99
2017-12-24T03:02:47.573Z,99.99
2017-12-24T03:03:47.550Z,99.99
2017-12-24T03:04:47.534Z,99.99
2017-12-24T03:05:47.510Z,99.99
2017-12-24T03:06:47.532Z,99.99
2017-12-24T03:07:47.475Z,99.99
2017-12-24T03:08:47.457Z,99.99
2017-12-24T03:09:47.429Z,99.99
2017-12-24T03:10:47.420Z,99.99
2017-12-24T03:11:47.414Z,99.99
2017-12-24T03:12:47.373Z,99.99
2017-12-24T03:13:47.360Z,99.99
2017-12-24T03:14:47.373Z,99.99
2017-12-24T03:15:47.354Z,99.99
2017-12-24T03:16:47.397Z,99.99
2017-12-24T03:17:47.317Z,99.99
2017-12-24T03:18:47.297Z,99.99
2017-12-24T03:19:47.273Z,99.99
2017-12-24T03:20:47.220Z,99.99
2017-12-24T03:21:47.217Z,99.99
2017-12-24T03:22:47.195Z,99.99
2017-12-24T03:23:47.169Z,99.99
2017-12-24T03:24:47.165Z,99.99
2017-12-24T03:25:47.118Z,99.99
2017-12-24T03:26:47.107Z,99.99
2017-12-24T03:27:47.104Z,99.99
2017-12-24T03:28:47.091Z,99.99
2017-12-24T03:29:47.057Z,99.99
2017-12-24T03:30:47.059Z,99.99
2017-12-24T03:31:47.004Z,99.99
2017-12-24T03:32:46.985Z,99.99
2017-12-24T03:33:46.971Z,99.99
2017-12-24T03:34:46.946Z,99.99
2017-12-24T03:35:46.959Z,99.99
2017-12-24T03:36:46.944Z,99.99
2017-12-24T03:37:46.889Z,99.99
2017-12-24T03:38:46.871Z,99.99
2017-12-24T03:39:46.882Z,99.99
2017-12-24T03:40:46.845Z,99.99
2017-12-24T03:41:46.813Z,99.99
2017-12-24T03:42:46.823Z,99.99
2017-12-24T03:43:46.774Z,99.99
2017-12-24T03:44:46.754Z,99.99
2017-12-24T03:45:46.768Z,99.99
2017-12-24T03:46:46.750Z,99.99
2017-12-24T03:47:46.692Z,99.99
2017-12-24T03:48:46.673Z,99.99
2017-12-24T03:49:46.658Z,99.99
2017-12-24T03:50:46.651Z,99.99
2017-12-24T03:51:46.652Z,99.99
2017-12-24T03:52:46.597Z,99.99
2017-12-24T03:53:46.612Z,99.99
2017-12-24T03:54:46.592Z,99.99
2017-12-24T03:55:46.572Z,99.99
2017-12-24T03:56:46.521Z,99.99
2017-12-24T03:57:46.498Z,99.99
2017-12-24T03:58:46.515Z,99.99
2017-12-24T03:59:46.491Z,99.99
2017-12-24T04:00:46.470Z,99.99
2017-12-24T04:01:46.423Z,99.99
2017-12-24T04:02:46.401Z,99.99
2017-12-24T04:03:46.419Z,99.99
2017-12-24T04:04:46.358Z,99.99
2017-12-24T04:05:46.343Z,99.99
2017-12-24T04:06:46.320Z,99.99
2017-12-24T04:07:46.303Z,99.99
2017-12-24T04:08:46.281Z,99.99
2017-12-24T04:09:46.262Z,99.99
2017-12-24T04:10:46.244Z,99.99
2017-12-24T04:11:46.243Z,99.99
2017-12-24T04:12:46.239Z,99.99
2017-12-24T04:13:46.192Z,99.99
2017-12-24T04:14:46.180Z,99.99
2017-12-24T04:15:46.181Z,99.99
2017-12-24T04:16:46.147Z,99.99
2017-12-24T04:17:46.108Z,99.99
2017-12-24T04:18:46.103Z,99.99
2017-12-24T04:19:46.097Z,99.99
2017-12-24T04:20:46.078Z,99.99
2017-12-24T04:21:46.028Z,99.99
2017-12-24T04:22:46.025Z,99.99
2017-12-24T04:23:45.988Z,99.99
2017-12-24T04:24:45.969Z,99.99
2017-12-24T04:25:45.962Z,99.99
2017-12-24T04:26:45.959Z,99.99
2017-12-24T04:27:45.922Z,99.99
2017-12-24T04:28:45.925Z,99.99
2017-12-24T04:29:45.868Z,99.99
2017-12-24T04:30:45.869Z,99.99
2017-12-24T04:31:45.860Z,99.99
2017-12-24T04:32:45.829Z,99.99
2017-12-24T04:33:45.824Z,99.99
2017-12-24T04:34:45.766Z,99.99
2017-12-24T04:35:45.785Z,99.99
2017-12-24T04:36:45.762Z,99.99
2017-12-24T04:37:45.742Z,99.99
2017-12-24T04:38:45.691Z,99.99
2017-12-24T04:39:45.672Z,99.99
2017-12-24T04:40:45.654Z,99.99
2017-12-24T04:41:45.636Z,99.99
2017-12-24T04:42:45.612Z,99.99
2017-12-24T04:43:45.625Z,99.99
2017-12-24T04:44:45.575Z,99.99
2017-12-24T04:45:45.550Z,99.99
2017-12-24T04:46:45.567Z,99.99
2017-12-24T04:47:45.513Z,99.99
2017-12-24T04:48:45.499Z,99.99
2017-12-24T04:49:45.490Z,99.99
2017-12-24T04:50:45.487Z,99.99
2017-12-24T04:51:45.436Z,99.99
2017-12-24T04:52:45.452Z,99.99
2017-12-24T04:53:45.413Z,99.99
2017-12-24T04:54:45.372Z,99.99
2017-12-24T04:55:45.353Z,99.99
2017-12-24T04:56:45.341Z,99.99
2017-12-24T04:57:45.340Z,99.99
2017-12-24T04:58:45.297Z,99.99
2017-12-24T04:59:45.280Z,99.99
2017-12-24T05:00:45.256Z,99.99
2017-12-24T05:01:45.232Z,99.99
2017-12-24T05:02:45.215Z,99.99
2017-12-24T05:03:45.193Z,99.99
2017-12-24T05:04:45.195Z,99.99
2017-12-24T05:05:45.192Z,99.99
2017-12-24T05:06:45.169Z,99.99
2017-12-24T05:07:45.129Z,99.99
2017-12-24T05:08:45.097Z,99.99
2017-12-24T05:09:45.094Z,99.99
2017-12-24T05:10:45.052Z,99.99
2017-12-24T05:11:45.035Z,99.99
2017-12-24T05:12:45.014Z,99.99
2017-12-24T05:13:45.029Z,99.99
2017-12-24T05:14:44.975Z,99.99
2017-12-24T05:15:44.993Z,99.99
2017-12-24T05:16:44.936Z,99.99
2017-12-24T05:17:44.956Z,99.99
2017-12-24T05:18:44.933Z,99.99
2017-12-24T05:19:44.909Z,99.99
2017-12-24T05:20:44.889Z,99.99
2017-12-24T05:21:44.876Z,99.99
2017-12-24T05:22:44.816Z,99.99
2017-12-24T05:23:44.796Z,99.99
2017-12-24T05:24:44.784Z,99.99
2017-12-24T05:25:44.771Z,99.99
2017-12-24T05:26:44.773Z,99.99
2017-12-24T05:27:44.717Z,99.99
2017-12-24T05:28:44.702Z,99.99
2017-12-24T05:29:44.679Z,99.99
2017-12-24T05:30:44.694Z,99.99
2017-12-24T05:31:44.639Z,99.99
2017-12-24T05:32:44.649Z,99.99
2017-12-24T05:33:44.631Z,99.99
2017-12-24T05:34:44.576Z,99.99
2017-12-24T05:35:44.595Z,99.99
2017-12-24T05:36:44.540Z,99.99
2017-12-24T05:37:44.521Z,99.99
2017-12-24T05:38:44.497Z,99.99
2017-12-24T05:39:44.481Z,99.99
2017-12-24T05:40:44.493Z,99.99
2017-12-24T05:41:44.437Z,99.99
2017-12-24T05:42:44.418Z,99.99
2017-12-24T05:43:44.434Z,99.99
2017-12-24T05:44:44.400Z,99.99
2017-12-24T05:45:44.362Z,99.99
2017-12-24T05:46:44.349Z,99.99
2017-12-24T05:47:44.334Z,99.99
2017-12-24T05:48:44.300Z,99.99
2017-12-24T05:49:44.297Z,99.99
2017-12-24T05:50:44.293Z,99.99
2017-12-24T05:51:44.235Z,99.99
2017-12-24T05:52:44.219Z,99.99
2017-12-24T05:53:44.210Z,99.99
2017-12-24T05:54:44.185Z,99.99
2017-12-24T05:55:44.166Z,99.99
2017-12-24T05:56:44.145Z,99.99
2017-12-24T05:57:44.118Z,99.99
2017-12-24T05:58:44.135Z,99.99
2017-12-24T05:59:44.081Z,99.99
2017-12-24T06:00:44.061Z,99.99
2017-12-24T06:01:44.076Z,99.99
2017-12-24T06:02:44.014Z,99.99
2017-12-24T06:03:44.015Z,99.99
2017-12-24T06:04:43.979Z,99.99
2017-12-24T06:05:43.960Z,99.99
2017-12-24T06:06:43.937Z,99.99
2017-12-24T06:07:43.923Z,99.99
2017-12-24T06:08:43.922Z,99.99
2017-12-24T06:09:43.921Z,99.99
2017-12-24T06:10:43.876Z,99.99
2017-12-24T06:11:43.875Z,99.99
2017-12-24T06:12:43.844Z,99.99
2017-12-24T06:13:43.804Z,99.99
2017-12-24T06:14:43.780Z,99.99
2017-12-24T06:15:43.795Z,99.99
2017-12-24T06:16:43.747Z,99.99
2017-12-24T06:17:43.720Z,99.99
2017-12-24T06:18:43.734Z,99.99
2017-12-24T06:19:43.686Z,99.99
2017-12-24T06:20:43.663Z,99.99
2017-12-24T06:21:43.639Z,99.99
2017-12-24T06:22:43.616Z,99.99
2017-12-24T06:23:43.639Z,99.99
2017-12-24T06:24:43.579Z,99.99
2017-12-24T06:25:43.598Z,99.99
2017-12-24T06:26:43.538Z,99.99
2017-12-24T06:27:43.524Z,99.99
2017-12-24T06:28:43.539Z,99.99
2017-12-24T06:29:43.500Z,99.99
2017-12-24T06:30:43.478Z,99.99
2017-12-24T06:31:43.457Z,99.99
2017-12-24T06:32:43.438Z,99.99
2017-12-24T06:33:43.436Z,99.99
2017-12-24T06:34:43.415Z,99.99
2017-12-24T06:35:43.396Z,99.99
2017-12-24T06:36:43.367Z,99.99
2017-12-24T06:37:43.356Z,99.99
2017-12-24T06:38:43.328Z,99.99
2017-12-24T06:39:43.282Z,99.99
2017-12-24T06:40:43.286Z,99.99
2017-12-24T06:41:43.356Z,99.99
2017-12-24T06:42:43.246Z,99.99
2017-12-24T06:43:43.201Z,99.99
2017-12-24T06:44:43.218Z,99.99
2017-12-24T06:45:43.197Z,99.99
2017-12-24T06:46:43.175Z,99.99
2017-12-24T06:47:43.137Z,99.99
2017-12-24T06:48:43.102Z,99.99
2017-12-24T06:49:43.097Z,99.99
2017-12-24T06:50:43.062Z,99.99
2017-12-24T06:51:43.042Z,99.99
2017-12-24T06:52:43.022Z,99.99
2017-12-24T06:53:43.008Z,99.99
2017-12-24T06:54:42.998Z,99.99
2017-12-24T06:55:42.960Z,99.99
2017-12-24T06:56:42.963Z,99.99
2017-12-24T06:57:42.923Z,99.99
2017-12-24T06:58:42.934Z,99.99
2017-12-24T06:59:42.881Z,99.99
2017-12-24T07:00:42.863Z,99.99
2017-12-24T07:01:42.863Z,99.99
2017-12-24T07:02:42.818Z,99.99
2017-12-24T07:03:42.798Z,99.99
2017-12-24T07:04:42.783Z,99.99
2017-12-24T07:05:42.790Z,99.99
2017-12-24T07:06:42.741Z,99.99
2017-12-24T07:07:42.754Z,99.99
2017-12-24T07:08:42.721Z,99.99
2017-12-24T07:09:42.678Z,99.99
2017-12-24T07:10:42.656Z,99.99
2017-12-24T07:11:42.640Z,99.99
2017-12-24T07:12:42.653Z,99.99
2017-12-24T07:13:42.634Z,99.99
2017-12-24T07:14:42.577Z,99.99
2017-12-24T07:15:42.559Z,99.99
2017-12-24T07:16:42.536Z,99.99
2017-12-24T07:17:42.519Z,99.99
2017-12-24T07:18:42.500Z,99.99
2017-12-24T07:19:42.512Z,99.99
2017-12-24T07:20:42.489Z,99.99
2017-12-24T07:21:42.436Z,99.99
2017-12-24T07:22:42.451Z,99.99
2017-12-24T07:23:42.427Z,99.99
2017-12-24T07:24:42.408Z,99.99
2017-12-24T07:25:42.359Z,99.99
2017-12-24T07:26:42.350Z,99.99
2017-12-24T07:27:42.348Z,99.99
2017-12-24T07:28:42.292Z,99.99
2017-12-24T07:29:42.293Z,99.99
2017-12-24T07:30:42.287Z,99.99
2017-12-24T07:31:42.269Z,99.99
2017-12-24T07:32:42.213Z,99.99
2017-12-24T07:33:42.193Z,99.99
2017-12-24T07:34:42.208Z,99.99
2017-12-24T07:35:42.184Z,99.99
2017-12-24T07:36:42.153Z,99.99
2017-12-24T07:37:42.146Z,99.99
2017-12-24T07:38:42.126Z,99.99
2017-12-24T07:39:42.079Z,99.99
2017-12-24T07:40:42.089Z,99.99
2017-12-24T07:41:42.064Z,99.99
2017-12-24T07:42:42.043Z,99.99
2017-12-24T07:43:41.994Z,99.99
2017-12-24T07:44:42.012Z,99.99
2017-12-24T07:45:41.955Z,99.99
2017-12-24T07:46:41.961Z,99.99
2017-12-24T07:47:41.925Z,99.99
2017-12-24T07:48:41.889Z,99.99
2017-12-24T07:49:41.888Z,99.99
2017-12-24T07:50:41.885Z,99.99
2017-12-24T07:51:41.828Z,99.99
2017-12-24T07:52:41.846Z,99.99
2017-12-24T07:53:41.791Z,99.99
2017-12-24T07:54:41.768Z,99.99
2017-12-24T07:55:41.749Z,99.99
2017-12-24T07:56:41.766Z,99.99
2017-12-24T07:57:41.709Z,99.99
2017-12-24T07:58:41.684Z,99.99
2017-12-24T07:59:41.702Z,99.99
2017-12-24T08:00:41.644Z,99.99
2017-12-24T08:01:41.670Z,99.99
2017-12-24T08:02:41.639Z,99.99
2017-12-24T08:03:41.831Z,99.99
2017-12-24T08:04:41.599Z,99.99
2017-12-24T08:05:41.549Z,99.99
2017-12-24T08:06:41.524Z,99.99
2017-12-24T08:07:41.541Z,99.99
2017-12-24T08:08:41.487Z,99.99
2017-12-24T08:09:41.502Z,99.99
2017-12-24T08:10:41.480Z,99.99
2017-12-24T08:11:41.424Z,99.99
2017-12-24T08:12:41.411Z,99.99
2017-12-24T08:13:41.420Z,99.99
2017-12-24T08:14:41.397Z,99.99
2017-12-24T08:15:41.377Z,99.99
2017-12-24T08:16:41.356Z,99.99
2017-12-24T08:17:41.306Z,99.99
2017-12-24T08:18:41.286Z,99.99
2017-12-24T08:19:41.273Z,99.99
2017-12-24T08:20:41.260Z,99.99
2017-12-24T08:21:41.225Z,99.99
2017-12-24T08:22:41.201Z,99.99
2017-12-24T08:23:41.180Z,99.99
2017-12-24T08:24:41.194Z,99.99
2017-12-24T08:25:41.135Z,99.99
2017-12-24T08:26:41.161Z,99.99
2017-12-24T08:27:41.100Z,99.99
2017-12-24T08:28:41.099Z,99.99
2017-12-24T08:29:41.078Z,99.99
2017-12-24T08:30:41.042Z,99.99
2017-12-24T08:31:41.051Z,99.99
2017-12-24T08:32:41.003Z,99.99
2017-12-24T08:33:41.014Z,99.99
2017-12-24T08:34:40.960Z,99.99
2017-12-24T08:35:40.976Z,99.99
2017-12-24T08:36:40.954Z,99.99
2017-12-24T08:37:40.916Z,99.99
2017-12-24T08:38:40.879Z,99.99
2017-12-24T08:39:40.891Z,99.99
2017-12-24T08:40:40.873Z,99.99
2017-12-24T08:41:40.836Z,99.99
2017-12-24T08:42:40.793Z,99.99
2017-12-24T08:43:40.773Z,99.99
2017-12-24T08:44:40.759Z,99.99
2017-12-24T08:45:40.737Z,99.99
2017-12-24T08:46:40.721Z,99.99
2017-12-24T08:47:40.723Z,99.99
2017-12-24T08:48:40.681Z,99.99
2017-12-24T08:49:40.672Z,99.99
2017-12-24T08:50:40.674Z,99.99
2017-12-24T08:51:40.651Z,99.99
2017-12-24T08:52:40.601Z,99.99
2017-12-24T08:53:40.610Z,99.99
2017-12-24T08:54:40.557Z,99.99
2017-12-24T08:55:40.545Z,99.99
2017-12-24T08:56:40.517Z,99.99
2017-12-24T08:57:40.501Z,99.99
2017-12-24T08:58:40.480Z,99.99
2017-12-24T08:59:40.461Z,99.99
2017-12-24T09:00:40.442Z,99.99
2017-12-24T09:01:40.426Z,99.99
2017-12-24T09:02:40.406Z,99.99
2017-12-24T09:03:40.379Z,99.99
2017-12-24T09:04:40.458Z,99.99
2017-12-24T09:05:40.376Z,99.99
2017-12-24T09:06:40.323Z,99.99
2017-12-24T09:07:40.305Z,99.74
2017-12-24T09:08:40.315Z,98.97
2017-12-24T09:09:40.293Z,99.36
2017-12-24T09:10:40.280Z,98.25
2017-12-24T09:11:40.260Z,97.77
2017-12-24T09:12:40.207Z,95.78
2017-12-24T09:13:40.192Z,95.40
2017-12-24T09:14:40.182Z,95.73
2017-12-24T09:15:40.184Z,96.70
2017-12-24T09:16:40.149Z,96.61
2017-12-24T09:17:40.117Z,98.10
2017-12-24T09:18:40.098Z,97.91
2017-12-24T09:19:40.120Z,97.28
2017-12-24T09:20:40.061Z,97.38
2017-12-24T09:21:40.079Z,96.36
2017-12-24T09:22:40.061Z,94.72
2017-12-24T09:23:40.031Z,94.72
2017-12-24T09:24:39.991Z,94.24
2017-12-24T09:25:40.551Z,93.56
2017-12-24T09:26:39.990Z,92.54
2017-12-24T09:27:39.958Z,92.74
2017-12-24T09:28:39.922Z,93.22
2017-12-24T09:29:39.941Z,93.56
2017-12-24T09:30:39.925Z,93.22
2017-12-24T09:31:39.905Z,93.12
2017-12-24T09:32:39.855Z,91.19
2017-12-24T09:33:39.855Z,90.17
2017-12-24T09:34:39.838Z,91.33
2017-12-24T09:35:39.820Z,90.36
2017-12-24T09:36:39.791Z,90.75
2017-12-24T09:37:39.808Z,89.73
2017-12-24T09:38:39.750Z,88.85
2017-12-24T09:39:39.785Z,89.39
2017-12-24T09:40:39.755Z,89.63
2017-12-24T09:41:39.707Z,87.79
2017-12-24T09:42:39.719Z,88.18
2017-12-24T09:43:39.704Z,87.41
2017-12-24T09:44:39.655Z,88.43
2017-12-24T09:45:39.646Z,88.57
2017-12-24T09:46:39.637Z,89.05
2017-12-24T09:47:39.614Z,89.01
2017-12-24T09:48:39.606Z,89.69
2017-12-24T09:49:39.614Z,89.74
2017-12-24T09:50:39.562Z,92.16
2017-12-24T09:51:39.567Z,92.74
2017-12-24T09:52:39.530Z,92.74
2017-12-24T09:53:39.514Z,92.16
2017-12-24T09:54:39.530Z,92.59
2017-12-24T09:55:39.520Z,92.83
2017-12-24T09:56:39.469Z,92.49
2017-12-24T09:57:39.487Z,92.69
2017-12-24T09:58:39.433Z,93.27
2017-12-24T09:59:39.454Z,93.75
2017-12-24T10:00:39.409Z,92.88
2017-12-24T10:01:39.393Z,92.79
2017-12-24T10:02:39.372Z,93.56
2017-12-24T10:03:39.385Z,91.58
2017-12-24T10:04:39.338Z,91.96
2017-12-24T10:05:39.337Z,90.41
2017-12-24T10:06:39.339Z,91.67
2017-12-24T10:07:39.310Z,91.53
2017-12-24T10:08:39.307Z,92.49
2017-12-24T10:09:39.273Z,91.77
2017-12-24T10:10:39.256Z,91.43
2017-12-24T10:11:39.221Z,92.49
2017-12-24T10:12:39.221Z,93.02
2017-12-24T10:13:39.205Z,91.96
2017-12-24T10:14:39.187Z,91.91
2017-12-24T10:15:39.181Z,91.91
2017-12-24T10:16:39.168Z,92.79
2017-12-24T10:17:39.124Z,92.59
2017-12-24T10:18:39.141Z,93.75
2017-12-24T10:19:39.127Z,92.98
2017-12-24T10:20:39.103Z,92.35
2017-12-24T10:21:39.103Z,91.58
2017-12-24T10:22:39.053Z,90.90
2017-12-24T10:23:39.064Z,90.90
2017-12-24T10:24:39.040Z,91.14
2017-12-24T10:25:39.051Z,88.85
2017-12-24T10:26:39.003Z,86.19
2017-12-24T10:27:38.957Z,84.49
2017-12-24T10:28:38.958Z,83.85
2017-12-24T10:29:38.926Z,82.17
2017-12-24T10:30:38.942Z,83.65
2017-12-24T10:31:38.897Z,83.47
2017-12-24T10:32:38.884Z,82.94
2017-12-24T10:33:38.899Z,84.58
2017-12-24T10:34:38.853Z,83.17
2017-12-24T10:35:38.874Z,82.30
2017-12-24T10:36:38.820Z,83.42
2017-12-24T10:37:38.822Z,84.50
2017-12-24T10:38:38.823Z,86.30
2017-12-24T10:39:38.776Z,87.46
2017-12-24T10:40:38.766Z,88.33
2017-12-24T10:41:38.779Z,88.33
2017-12-24T10:42:38.730Z,88.53
2017-12-24T10:43:38.752Z,87.50
2017-12-24T10:44:38.701Z,86.44
2017-12-24T10:45:38.729Z,85.71
2017-12-24T10:46:38.706Z,86.68
2017-12-24T10:47:38.696Z,85.90
2017-12-24T10:48:39.220Z,86.58
2017-12-24T10:49:38.628Z,85.28
2017-12-24T10:50:38.616Z,84.79
2017-12-24T10:51:38.629Z,85.76
2017-12-24T10:52:38.589Z,86.34
2017-12-24T10:53:38.589Z,87.02
2017-12-24T10:54:38.587Z,87.17
2017-12-24T10:55:38.568Z,86.69
2017-12-24T10:56:38.521Z,86.98
2017-12-24T10:57:38.504Z,86.30
2017-12-24T10:58:38.492Z,88.04
2017-12-24T10:59:38.512Z,87.46
2017-12-24T11:00:38.465Z,87.17
2017-12-24T11:01:38.441Z,88.33
2017-12-24T11:02:38.429Z,87.85
2017-12-24T11:03:38.441Z,87.55
2017-12-24T11:04:38.397Z,87.27
2017-12-24T11:05:38.395Z,86.30
2017-12-24T11:06:38.395Z,86.30
2017-12-24T11:07:38.385Z,86.20
2017-12-24T11:08:38.366Z,85.82
2017-12-24T11:09:38.345Z,85.72
2017-12-24T11:10:38.296Z,85.91
2017-12-24T11:11:38.278Z,86.20
2017-12-24T11:12:38.267Z,85.76
2017-12-24T11:13:38.249Z,85.76
2017-12-24T11:14:38.270Z,85.14
2017-12-24T11:15:38.213Z,85.08
2017-12-24T11:16:38.233Z,84.99
2017-12-24T11:17:38.199Z,84.89
2017-12-24T11:18:38.170Z,83.92
2017-12-24T11:19:38.149Z,84.50
2017-12-24T11:20:38.169Z,84.06
2017-12-24T11:21:38.150Z,83.38
2017-12-24T11:22:38.101Z,83.67
2017-12-24T11:23:38.090Z,82.45
2017-12-24T11:24:38.075Z,82.17
2017-12-24T11:25:38.056Z,81.97
2017-12-24T11:26:38.056Z,80.80
2017-12-24T11:27:38.029Z,81.10
2017-12-24T11:28:38.009Z,81.97
2017-12-24T11:29:37.995Z,81.93
2017-12-24T11:30:38.021Z,82.41
2017-12-24T11:31:37.995Z,82.32
2017-12-24T11:32:37.948Z,83.28
2017-12-24T11:33:37.955Z,82.65
2017-12-24T11:34:37.933Z,79.45
2017-12-24T11:35:38.445Z,80.90
2017-12-24T11:36:37.884Z,79.30
2017-12-24T11:37:37.871Z,79.30
2017-12-24T11:38:37.852Z,79.78
2017-12-24T11:39:37.837Z,80.75
2017-12-24T11:40:37.863Z,78.07
2017-12-24T11:41:37.814Z,77.88
2017-12-24T11:42:37.800Z,77.01
2017-12-24T11:43:37.814Z,76.78
2017-12-24T11:44:37.806Z,77.84
2017-12-24T11:45:37.791Z,76.87
2017-12-24T11:46:37.743Z,77.16
2017-12-24T11:47:37.724Z,76.68
2017-12-24T11:48:37.745Z,76.72
2017-12-24T11:49:37.696Z,76.81
2017-12-24T11:50:37.691Z,75.30
2017-12-24T11:51:37.701Z,76.23
2017-12-24T11:52:37.665Z,76.62
2017-12-24T11:53:37.675Z,76.81
2017-12-24T11:54:37.627Z,76.52
2017-12-24T11:55:37.610Z,76.14
2017-12-24T11:56:37.630Z,76.42
2017-12-24T11:57:37.618Z,76.68
2017-12-24T11:58:37.569Z,76.97
2017-12-24T11:59:37.589Z,77.26
2017-12-24T12:00:37.573Z,76.72
2017-12-24T12:01:37.519Z,76.68
2017-12-24T12:02:37.547Z,77.20
2017-12-24T12:03:37.509Z,75.94
2017-12-24T12:04:37.514Z,75.55
2017-12-24T12:05:37.497Z,76.72
2017-12-24T12:06:37.460Z,76.42
2017-12-24T12:07:37.442Z,76.32
2017-12-24T12:08:37.439Z,76.81
2017-12-24T12:09:37.408Z,76.23
2017-12-24T12:10:37.426Z,75.94
2017-12-24T12:11:37.381Z,76.27
2017-12-24T12:12:37.395Z,74.33
2017-12-24T12:13:37.370Z,75.30
2017-12-24T12:14:37.339Z,75.98
2017-12-24T12:15:37.314Z,74.43
2017-12-24T12:16:37.341Z,74.71
2017-12-24T12:17:37.329Z,73.55
2017-12-24T12:18:37.274Z,73.20
2017-12-24T12:19:37.267Z,73.10
2017-12-24T12:20:37.261Z,71.74
2017-12-24T12:21:37.234Z,72.97
2017-12-24T12:22:37.249Z,73.94
2017-12-24T12:23:37.234Z,73.74
2017-12-24T12:24:37.220Z,74.13
2017-12-24T12:25:37.177Z,74.52
2017-12-24T12:26:37.165Z,74.71
2017-12-24T12:27:37.161Z,75.10
2017-12-24T12:28:37.151Z,73.74
2017-12-24T12:29:37.135Z,74.13
2017-12-24T12:30:37.111Z,74.52
2017-12-24T12:31:37.088Z,74.43
2017-12-24T12:32:37.104Z,73.94
2017-12-24T12:33:37.097Z,75.59
2017-12-24T12:34:37.079Z,74.49
2017-12-24T12:35:37.050Z,75.36
2017-12-24T12:36:37.021Z,76.14
2017-12-24T12:37:37.003Z,76.72
2017-12-24T12:38:36.988Z,76.17
2017-12-24T12:39:36.971Z,75.78
2017-12-24T12:40:36.957Z,75.68
2017-12-24T12:41:36.981Z,74.23
2017-12-24T12:42:36.934Z,75.20
2017-12-24T12:43:36.950Z,74.58
2017-12-24T12:44:36.922Z,76.14
2017-12-24T12:45:36.917Z,76.23
2017-12-24T12:46:37.019Z,76.68
2017-12-24T12:47:36.886Z,76.48
2017-12-24T12:48:36.847Z,76.10
2017-12-24T12:49:36.832Z,76.78
2017-12-24T12:50:36.830Z,76.87
2017-12-24T12:51:36.805Z,77.29
2017-12-24T12:52:36.785Z,75.84